Time;durP1;ratioP1;P1;durP2;ratioP2;P2;SDS_P1;SDS_P2;PMS_P1;PMS_P2;Temp;Humidity;BMP_temperature;BMP_pressure;BME280_temperature;BME280_humidity;BME280_pressure;Samples;Min_cycle;Max_cycle;Signal;HPM_P1;HPM_P2
2021/06/04 00:00:15;;;;;;;11.90;7.60;;;14.70;98.60;;;;;;4441557;32;20532;-80
2021/06/04 00:02:43;;;;;;;10.53;7.57;;;14.70;99.10;;;;;;4441534;32;20456;-80
2021/06/04 00:05:13;;;;;;;13.30;7.60;;;14.60;99.20;;;;;;4442247;32;20139;-80
2021/06/04 00:07:40;;;;;;;11.33;7.53;;;14.60;99.90;;;;;;4441478;32;20181;-80
2021/06/04 00:10:12;;;;;;;11.63;7.80;;;14.50;99.70;;;;;;4441564;32;20208;-81
2021/06/04 00:12:40;;;;;;;12.63;7.90;;;14.50;99.90;;;;;;4442431;32;20184;-80
2021/06/04 00:15:16;;;;;;;13.90;8.33;;;14.40;99.90;;;;;;4441281;32;20138;-80
2021/06/04 00:17:43;;;;;;;15.70;8.07;;;14.40;99.90;;;;;;4442160;32;20243;-80
2021/06/04 00:20:19;;;;;;;12.47;8.00;;;14.40;99.90;;;;;;4442842;32;20138;-81
2021/06/04 00:22:46;;;;;;;12.40;7.70;;;14.30;99.90;;;;;;4441522;32;20469;-81
2021/06/04 00:25:13;;;;;;;14.47;8.10;;;14.40;99.90;;;;;;4441124;32;20419;-81
2021/06/04 00:27:40;;;;;;;11.13;7.57;;;14.30;99.90;;;;;;4441747;32;20234;-80
2021/06/04 00:30:08;;;;;;;12.27;7.53;;;14.30;99.90;;;;;;4441410;32;20146;-80
2021/06/04 00:32:35;;;;;;;13.33;7.97;;;14.30;99.90;;;;;;4442537;32;20162;-80
2021/06/04 00:35:05;;;;;;;14.03;7.53;;;14.30;99.90;;;;;;4440616;32;20408;-80
2021/06/04 00:37:32;;;;;;;12.17;7.80;;;14.20;99.90;;;;;;4441268;32;20134;-80
2021/06/04 00:39:59;;;;;;;12.50;8.43;;;14.20;99.90;;;;;;4441564;32;20502;-80
2021/06/04 00:42:33;;;;;;;13.87;8.17;;;14.10;99.90;;;;;;4439920;32;20198;-79
2021/06/04 00:45:08;;;;;;;17.27;7.93;;;14.10;99.90;;;;;;4441381;32;20370;-80
2021/06/04 00:47:36;;;;;;;13.43;7.97;;;14.10;99.90;;;;;;4441873;32;20161;-80
2021/06/04 00:50:10;;;;;;;13.70;7.53;;;14.10;99.90;;;;;;4442240;32;20561;-81
2021/06/04 00:52:38;;;;;;;11.23;7.10;;;14.10;99.90;;;;;;4441070;32;20173;-80
2021/06/04 00:55:11;;;;;;;15.07;7.50;;;14.00;99.90;;;;;;4441984;32;20139;-80
2021/06/04 00:57:38;;;;;;;13.57;8.00;;;14.00;99.90;;;;;;4440169;32;20165;-80
2021/06/04 01:00:11;;;;;;;12.70;8.70;;;13.90;99.90;;;;;;4440753;32;20142;-80
2021/06/04 01:02:40;;;;;;;13.73;7.97;;;13.90;99.90;;;;;;4441229;32;20180;-80
2021/06/04 01:05:09;;;;;;;13.17;7.73;;;13.80;99.90;;;;;;4440038;32;20210;-80
2021/06/04 01:07:46;;;;;;;12.97;7.93;;;13.80;99.90;;;;;;4440420;32;20138;-80
2021/06/04 01:10:50;;;;;;;13.80;7.47;;;13.80;99.90;;;;;;4442077;32;20134;-81
2021/06/04 01:13:19;;;;;;;11.77;7.33;;;13.70;99.90;;;;;;4440377;32;20176;-81
2021/06/04 01:15:56;;;;;;;10.57;7.40;;;13.70;99.90;;;;;;4441192;32;20146;-81
2021/06/04 01:18:52;;;;;;;16.07;7.90;;;13.70;99.90;;;;;;4440564;32;20142;-81
2021/06/04 01:21:25;;;;;;;13.67;8.10;;;13.60;99.90;;;;;;4377725;32;20422;-80
2021/06/04 01:24:26;;;;;;;10.70;7.70;;;13.60;99.90;;;;;;4379052;32;20139;-80
2021/06/04 01:26:59;;;;;;;11.13;7.80;;;13.50;99.90;;;;;;4378015;32;20140;-81
2021/06/04 01:29:35;;;;;;;12.57;7.33;;;13.50;99.90;;;;;;4377192;32;20152;-81
2021/06/04 01:32:11;;;;;;;13.77;8.07;;;13.50;99.90;;;;;;4378172;32;20182;-81
2021/06/04 01:34:45;;;;;;;12.97;7.83;;;13.40;99.90;;;;;;4377566;32;20174;-80
2021/06/04 01:37:18;;;;;;;12.97;8.13;;;13.40;99.90;;;;;;4377516;32;20163;-81
2021/06/04 01:39:50;;;;;;;13.73;8.00;;;13.30;99.90;;;;;;4377867;32;20170;-81
2021/06/04 01:42:22;;;;;;;17.23;8.27;;;13.30;99.90;;;;;;4376764;32;20147;-81
2021/06/04 01:45:05;;;;;;;11.93;7.30;;;13.30;99.90;;;;;;4377820;32;20195;-81
2021/06/04 01:47:39;;;;;;;13.27;7.83;;;13.20;99.90;;;;;;4377913;32;20186;-80
2021/06/04 01:50:13;;;;;;;13.33;7.57;;;13.20;99.90;;;;;;4377998;32;20209;-81
2021/06/04 01:52:41;;;;;;;12.33;7.70;;;13.20;99.90;;;;;;4377390;32;20155;-80
2021/06/04 01:55:29;;;;;;;12.30;7.73;;;13.20;99.90;;;;;;4376987;32;20171;-80
2021/06/04 01:58:03;;;;;;;14.87;8.17;;;13.20;99.90;;;;;;4412489;32;20224;-80
2021/06/04 02:00:38;;;;;;;13.63;8.33;;;13.10;99.90;;;;;;4441542;32;20162;-81
2021/06/04 02:03:06;;;;;;;13.93;8.50;;;13.10;99.90;;;;;;4440771;32;20180;-81
2021/06/04 02:05:36;;;;;;;13.97;7.53;;;13.10;99.90;;;;;;4439843;32;20451;-81
2021/06/04 02:08:05;;;;;;;12.17;7.83;;;13.10;99.90;;;;;;4439800;32;20147;-80
2021/06/04 02:10:38;;;;;;;15.77;8.33;;;13.10;99.90;;;;;;4438386;32;20168;-80
2021/06/04 02:13:07;;;;;;;14.50;8.03;;;13.00;99.90;;;;;;4440926;32;20213;-80
2021/06/04 02:15:38;;;;;;;13.27;8.17;;;13.00;99.90;;;;;;4439785;32;20187;-80
2021/06/04 02:18:36;;;;;;;14.93;8.27;;;13.00;99.90;;;;;;4440144;32;20158;-80
2021/06/04 02:21:09;;;;;;;14.33;8.20;;;13.00;99.90;;;;;;4440002;32;20150;-80
2021/06/04 02:23:40;;;;;;;12.53;8.53;;;13.00;99.90;;;;;;4439942;32;20134;-80
2021/06/04 02:26:16;;;;;;;14.40;7.80;;;13.00;99.90;;;;;;4440116;32;20142;-80
2021/06/04 02:28:47;;;;;;;14.77;8.43;;;13.00;99.90;;;;;;4439720;32;20191;-80
2021/06/04 02:31:31;;;;;;;14.80;8.23;;;13.00;99.90;;;;;;4441123;32;20537;-81
2021/06/04 02:34:31;;;;;;;11.80;7.77;;;12.90;99.90;;;;;;4440693;32;20547;-81
2021/06/04 02:37:10;;;;;;;15.77;8.77;;;12.90;99.90;;;;;;4377049;32;20227;-81
2021/06/04 02:40:00;;;;;;;14.07;8.37;;;12.90;99.90;;;;;;4376843;32;20206;-81
2021/06/04 02:42:37;;;;;;;13.80;8.80;;;12.90;99.90;;;;;;4376461;32;20353;-80
2021/06/04 02:45:13;;;;;;;19.00;8.70;;;12.90;99.90;;;;;;4378275;32;20258;-81
2021/06/04 02:47:44;;;;;;;14.60;8.80;;;12.90;99.90;;;;;;4377110;32;20163;-81
2021/06/04 02:50:22;;;;;;;13.30;8.30;;;12.90;99.90;;;;;;4378605;32;20154;-80
2021/06/04 02:52:49;;;;;;;13.63;8.63;;;12.90;99.90;;;;;;4376591;32;20191;-80
2021/06/04 02:55:24;;;;;;;14.07;8.60;;;12.90;99.90;;;;;;4378314;32;20162;-80
2021/06/04 02:57:51;;;;;;;15.47;8.97;;;12.90;99.90;;;;;;4377712;32;20529;-80
2021/06/04 03:00:30;;;;;;;15.60;9.07;;;12.90;99.90;;;;;;4377182;32;20214;-80
2021/06/04 03:02:56;;;;;;;15.80;8.77;;;12.90;99.90;;;;;;4378166;32;20202;-81
2021/06/04 03:05:29;;;;;;;16.10;9.20;;;13.00;99.90;;;;;;4376446;32;20246;-80
2021/06/04 03:08:00;;;;;;;14.33;9.17;;;13.00;99.90;;;;;;4376527;32;20471;-81
2021/06/04 03:10:33;;;;;;;14.17;8.57;;;13.00;99.90;;;;;;4377182;32;20136;-81
2021/06/04 03:13:00;;;;;;;14.70;9.37;;;13.10;99.90;;;;;;4411856;32;20154;-81
2021/06/04 03:15:41;;;;;;;15.93;8.70;;;13.10;99.90;;;;;;4439352;32;20165;-81
2021/06/04 03:18:11;;;;;;;14.60;9.10;;;13.20;99.90;;;;;;4440875;32;20222;-81
2021/06/04 03:20:41;;;;;;;16.00;9.27;;;13.20;99.90;;;;;;4440996;32;20668;-81
2021/06/04 03:23:12;;;;;;;13.77;9.37;;;13.30;99.90;;;;;;4442009;32;20164;-81
2021/06/04 03:25:43;;;;;;;18.90;10.40;;;13.40;99.90;;;;;;4443442;32;20137;-81
2021/06/04 03:28:13;;;;;;;15.33;9.10;;;13.40;99.90;;;;;;4443476;32;20134;-81
2021/06/04 03:30:43;;;;;;;14.70;9.40;;;13.50;99.90;;;;;;4442092;32;20143;-81
2021/06/04 03:33:14;;;;;;;14.17;9.20;;;13.60;99.90;;;;;;4443167;32;20149;-81
2021/06/04 03:35:41;;;;;;;17.17;9.17;;;13.60;99.90;;;;;;4441375;32;20169;-81
2021/06/04 03:38:09;;;;;;;19.13;9.40;;;13.60;99.90;;;;;;4443586;32;20181;-81
2021/06/04 03:40:36;;;;;;;17.60;9.37;;;13.70;99.90;;;;;;4443305;32;20161;-81
2021/06/04 03:43:07;;;;;;;15.53;9.27;;;13.70;99.90;;;;;;4441758;32;20172;-81
2021/06/04 03:45:39;;;;;;;17.87;9.30;;;13.70;99.90;;;;;;4443526;32;20144;-81
2021/06/04 03:48:08;;;;;;;16.40;9.47;;;13.70;99.90;;;;;;4440603;32;20516;-81
2021/06/04 03:50:36;;;;;;;16.73;9.73;;;13.80;99.90;;;;;;4441061;32;20425;-80
2021/06/04 03:53:06;;;;;;;16.60;10.00;;;13.80;99.90;;;;;;4440495;32;20511;-80
2021/06/04 03:55:34;;;;;;;15.47;9.27;;;13.90;99.90;;;;;;4441906;32;20193;-81
2021/06/04 03:58:01;;;;;;;15.50;9.43;;;13.90;99.90;;;;;;4441218;32;20183;-80
2021/06/04 04:00:39;;;;;;;16.07;9.40;;;14.00;99.90;;;;;;4441574;32;20189;-81
2021/06/04 04:03:09;;;;;;;14.27;9.67;;;14.10;99.90;;;;;;4442750;32;20150;-81
2021/06/04 04:05:37;;;;;;;16.03;9.40;;;14.10;99.90;;;;;;4443196;32;20145;-82
2021/06/04 04:08:05;;;;;;;13.30;9.10;;;14.20;99.90;;;;;;4440277;32;20138;-81
2021/06/04 04:10:33;;;;;;;15.53;9.60;;;14.20;99.90;;;;;;4441371;32;20174;-81
2021/06/04 04:13:00;;;;;;;20.13;10.53;;;14.20;99.90;;;;;;4441277;32;20393;-81
2021/06/04 04:15:29;;;;;;;18.90;10.80;;;14.30;99.90;;;;;;4441182;32;20139;-81
2021/06/04 04:18:00;;;;;;;18.47;11.20;;;14.40;99.90;;;;;;4441690;32;20143;-81
2021/06/04 04:20:37;;;;;;;15.57;9.77;;;14.40;99.90;;;;;;4442294;32;20402;-81
2021/06/04 04:23:05;;;;;;;14.70;9.70;;;14.50;99.90;;;;;;4441251;32;20187;-81
2021/06/04 04:25:35;;;;;;;14.47;9.20;;;14.60;99.90;;;;;;4441078;32;20230;-81
2021/06/04 04:28:05;;;;;;;13.53;8.97;;;14.60;99.90;;;;;;4441107;32;20157;-81
2021/06/04 04:30:33;;;;;;;15.73;8.67;;;14.70;99.90;;;;;;4441800;32;20230;-80
2021/06/04 04:33:00;;;;;;;14.20;9.20;;;14.80;99.90;;;;;;4440709;32;20414;-81
2021/06/04 04:35:30;;;;;;;14.23;8.80;;;14.90;99.90;;;;;;4440948;32;20161;-80
2021/06/04 04:37:58;;;;;;;14.07;8.70;;;15.00;99.90;;;;;;4439901;32;20203;-80
2021/06/04 04:40:29;;;;;;;16.80;9.13;;;15.10;99.90;;;;;;4441227;32;20158;-80
2021/06/04 04:42:56;;;;;;;15.70;9.00;;;15.20;99.90;;;;;;4442613;32;20139;-80
2021/06/04 04:45:26;;;;;;;14.07;8.90;;;15.20;99.90;;;;;;4440718;32;20150;-80
2021/06/04 04:47:53;;;;;;;12.63;8.70;;;15.30;99.90;;;;;;4440706;32;20187;-80
2021/06/04 04:50:21;;;;;;;12.43;8.40;;;15.50;99.90;;;;;;4440728;32;20143;-81
2021/06/04 04:52:48;;;;;;;14.57;9.07;;;15.50;99.90;;;;;;4440592;32;20161;-80
2021/06/04 04:55:16;;;;;;;15.60;7.80;;;15.60;99.90;;;;;;4439825;32;20157;-81
2021/06/04 04:57:44;;;;;;;15.30;8.40;;;15.70;99.90;;;;;;4440372;32;20218;-81
2021/06/04 05:00:15;;;;;;;13.13;7.90;;;15.80;99.90;;;;;;4440534;32;20158;-81
2021/06/04 05:02:42;;;;;;;12.33;7.50;;;15.90;99.90;;;;;;4442376;32;20403;-81
2021/06/04 05:05:09;;;;;;;12.83;7.80;;;16.00;99.90;;;;;;4440818;32;20169;-81
2021/06/04 05:07:37;;;;;;;13.40;7.37;;;16.10;99.90;;;;;;4440380;32;20130;-81
2021/06/04 05:10:05;;;;;;;11.40;7.37;;;16.10;99.90;;;;;;4441796;32;20171;-81
2021/06/04 05:12:34;;;;;;;13.07;7.53;;;16.20;99.90;;;;;;4440264;32;20158;-81
2021/06/04 05:15:05;;;;;;;13.60;7.67;;;16.30;99.90;;;;;;4440651;32;20163;-81
2021/06/04 05:17:32;;;;;;;14.50;7.53;;;16.50;99.90;;;;;;4440466;32;20138;-81
2021/06/04 05:19:59;;;;;;;10.73;7.07;;;16.60;99.90;;;;;;4441453;32;20196;-81
2021/06/04 05:22:26;;;;;;;11.57;7.20;;;16.70;99.90;;;;;;4440236;32;20142;-81
2021/06/04 05:24:53;;;;;;;15.17;7.43;;;16.80;99.90;;;;;;4440119;32;20202;-80
2021/06/04 05:27:20;;;;;;;12.33;6.70;;;16.80;99.90;;;;;;4440430;32;20221;-80
2021/06/04 05:29:47;;;;;;;12.77;6.70;;;17.00;99.90;;;;;;4440034;32;20150;-80
2021/06/04 05:32:14;;;;;;;11.30;6.93;;;17.10;99.90;;;;;;4439939;32;20185;-81
2021/06/04 05:34:42;;;;;;;15.53;7.00;;;17.20;99.90;;;;;;4440616;32;20143;-81
2021/06/04 05:37:09;;;;;;;10.93;6.90;;;17.30;99.90;;;;;;4441654;32;20196;-81
2021/06/04 05:39:36;;;;;;;12.37;6.67;;;17.40;99.90;;;;;;4442614;32;20139;-81
2021/06/04 05:42:06;;;;;;;10.27;6.77;;;17.50;99.90;;;;;;4442659;32;20127;-80
2021/06/04 05:44:35;;;;;;;11.23;6.67;;;17.70;99.90;;;;;;4443456;32;20150;-81
2021/06/04 05:47:09;;;;;;;13.83;7.97;;;17.80;99.90;;;;;;4443613;32;20142;-81
2021/06/04 05:49:37;;;;;;;12.33;7.00;;;17.80;99.90;;;;;;4442491;32;20142;-81
2021/06/04 05:52:08;;;;;;;16.57;7.20;;;17.90;99.90;;;;;;4442429;32;20199;-81
2021/06/04 05:54:41;;;;;;;14.13;7.20;;;18.00;99.90;;;;;;4444540;32;20499;-81
2021/06/04 05:57:08;;;;;;;17.13;7.10;;;18.10;99.90;;;;;;4443051;32;20170;-81
2021/06/04 05:59:35;;;;;;;12.87;7.10;;;18.30;99.90;;;;;;4440673;32;20170;-81
2021/06/04 06:02:03;;;;;;;13.47;7.33;;;18.40;99.90;;;;;;4443415;32;20227;-82
2021/06/04 06:04:30;;;;;;;13.43;7.60;;;18.50;99.90;;;;;;4443839;32;20448;-82
2021/06/04 06:06:57;;;;;;;13.53;6.90;;;18.60;99.90;;;;;;4444425;32;20400;-81
2021/06/04 06:09:24;;;;;;;11.47;6.40;;;18.70;99.90;;;;;;4442971;32;20197;-81
2021/06/04 06:11:51;;;;;;;13.83;6.93;;;18.80;99.90;;;;;;4442984;32;20169;-82
2021/06/04 06:14:18;;;;;;;11.47;7.03;;;19.00;99.90;;;;;;4440877;32;20173;-82
2021/06/04 06:16:45;;;;;;;10.60;6.47;;;19.00;99.90;;;;;;4440073;32;20154;-82
2021/06/04 06:19:15;;;;;;;10.53;6.60;;;19.10;99.60;;;;;;4440247;32;20533;-81
2021/06/04 06:21:46;;;;;;;11.73;6.60;;;19.30;98.80;;;;;;4440527;32;20169;-81
2021/06/04 06:24:14;;;;;;;12.47;6.63;;;19.40;99.10;;;;;;4440222;32;20460;-81
2021/06/04 06:26:41;;;;;;;9.53;6.37;;;19.50;99.00;;;;;;4440286;32;20449;-81
2021/06/04 06:29:11;;;;;;;10.77;6.57;;;19.60;98.90;;;;;;4439678;32;20161;-81
2021/06/04 06:31:43;;;;;;;16.40;6.53;;;19.70;98.70;;;;;;4438711;32;20169;-81
2021/06/04 06:34:11;;;;;;;12.33;6.70;;;19.80;97.50;;;;;;4439375;32;20146;-81
2021/06/04 06:36:40;;;;;;;12.40;6.13;;;19.90;97.60;;;;;;4438429;32;20433;-81
2021/06/04 06:39:12;;;;;;;10.17;5.50;;;20.00;96.50;;;;;;4439499;32;20139;-82
2021/06/04 06:41:42;;;;;;;12.40;6.23;;;20.10;96.90;;;;;;4440584;32;20193;-82
2021/06/04 06:44:10;;;;;;;14.00;5.97;;;20.20;96.00;;;;;;4439404;32;20178;-82
2021/06/04 06:46:39;;;;;;;11.33;6.17;;;20.40;95.30;;;;;;4439520;32;20139;-81
2021/06/04 06:49:07;;;;;;;15.43;5.90;;;20.50;94.70;;;;;;4438945;32;20354;-81
2021/06/04 06:51:36;;;;;;;7.20;4.90;;;20.60;93.00;;;;;;4439742;32;20201;-81
2021/06/04 06:54:07;;;;;;;10.03;4.40;;;20.60;91.90;;;;;;4439285;32;20150;-81
2021/06/04 06:56:35;;;;;;;7.47;4.60;;;20.60;85.40;;;;;;4441972;32;20184;-82
2021/06/04 06:59:04;;;;;;;8.67;5.00;;;20.60;84.80;;;;;;4443812;32;20143;-83
2021/06/04 07:01:31;;;;;;;12.83;5.60;;;20.60;87.40;;;;;;4441383;32;20146;-81
2021/06/04 07:04:00;;;;;;;12.50;5.30;;;20.70;89.10;;;;;;4442147;32;20196;-82
2021/06/04 07:06:33;;;;;;;9.07;4.37;;;20.90;91.30;;;;;;4443254;32;20191;-81
2021/06/04 07:09:01;;;;;;;6.40;4.30;;;21.00;83.60;;;;;;4442617;32;20152;-81
2021/06/04 07:11:34;;;;;;;9.97;4.63;;;21.10;83.60;;;;;;4442040;32;20135;-81
2021/06/04 07:14:04;;;;;;;8.60;4.37;;;21.20;83.30;;;;;;4442291;32;20172;-80
2021/06/04 07:16:31;;;;;;;6.63;4.30;;;21.40;81.40;;;;;;4441643;32;20134;-80
2021/06/04 07:18:59;;;;;;;6.80;4.73;;;21.40;79.50;;;;;;4442030;32;20380;-82
2021/06/04 07:21:27;;;;;;;6.83;4.40;;;21.50;79.10;;;;;;4442120;32;20147;-81
2021/06/04 07:23:55;;;;;;;5.93;3.57;;;21.70;77.80;;;;;;4428963;32;20189;-80
2021/06/04 07:26:23;;;;;;;6.27;3.50;;;21.70;72.70;;;;;;4441852;32;20161;-81
2021/06/04 07:28:50;;;;;;;7.20;3.50;;;21.90;71.00;;;;;;4440714;32;20452;-81
2021/06/04 07:31:19;;;;;;;7.90;3.70;;;22.00;71.70;;;;;;4442180;32;20166;-81
2021/06/04 07:33:50;;;;;;;6.10;3.57;;;22.00;66.80;;;;;;4441005;32;20146;-82
2021/06/04 07:36:23;;;;;;;5.97;3.60;;;22.00;67.20;;;;;;4441932;32;20143;-81
2021/06/04 07:38:51;;;;;;;5.97;2.97;;;22.00;65.80;;;;;;4441279;32;20413;-81
2021/06/04 07:41:19;;;;;;;6.33;3.33;;;22.10;63.20;;;;;;4442324;32;20165;-81
2021/06/04 07:43:47;;;;;;;4.97;3.27;;;22.10;65.00;;;;;;4441691;32;20147;-81
2021/06/04 07:46:16;;;;;;;5.47;3.20;;;21.90;63.30;;;;;;4443365;32;20139;-80
2021/06/04 07:48:44;;;;;;;6.30;3.00;;;22.00;65.70;;;;;;4441611;32;20142;-81
2021/06/04 07:51:16;;;;;;;6.07;3.50;;;22.20;69.80;;;;;;4441385;32;20135;-80
2021/06/04 07:53:44;;;;;;;5.63;3.30;;;22.40;66.30;;;;;;4442956;32;20169;-81
2021/06/04 07:56:16;;;;;;;6.03;3.40;;;22.50;66.30;;;;;;4440627;32;20154;-81
2021/06/04 07:58:45;;;;;;;8.60;3.50;;;22.60;65.90;;;;;;4441034;32;20192;-80
2021/06/04 08:01:14;;;;;;;6.57;3.37;;;22.70;66.20;;;;;;4442875;32;20154;-80
2021/06/04 08:03:44;;;;;;;5.87;3.30;;;22.80;66.70;;;;;;4441221;32;20142;-81
2021/06/04 08:06:13;;;;;;;5.13;2.90;;;23.00;64.00;;;;;;4440628;32;20150;-80
2021/06/04 08:08:41;;;;;;;4.95;2.97;;;23.10;60.70;;;;;;4440553;32;20165;-81
2021/06/04 08:11:10;;;;;;;4.87;2.80;;;23.10;58.60;;;;;;4441076;32;20198;-81
2021/06/04 08:13:37;;;;;;;5.75;2.78;;;23.20;60.10;;;;;;4440885;32;20138;-81
2021/06/04 08:16:08;;;;;;;4.43;2.80;;;23.30;57.70;;;;;;4441157;32;20141;-81
2021/06/04 08:18:36;;;;;;;5.53;2.72;;;23.10;55.60;;;;;;4441837;32;20511;-81
2021/06/04 08:21:17;;;;;;;5.57;3.03;;;23.20;57.40;;;;;;4442662;32;20142;-81
2021/06/04 08:23:45;;;;;;;7.70;3.22;;;23.60;54.30;;;;;;4441251;32;20168;-82
2021/06/04 08:26:17;;;;;;;4.40;2.83;;;24.40;53.20;;;;;;4441023;32;20138;-82
2021/06/04 08:28:44;;;;;;;4.87;2.70;;;25.40;52.90;;;;;;4440750;32;20504;-82
2021/06/04 08:31:12;;;;;;;4.12;2.60;;;26.10;48.20;;;;;;4441170;32;20150;-82
2021/06/04 08:33:42;;;;;;;4.37;2.65;;;26.70;47.60;;;;;;4441002;32;20209;-82
2021/06/04 08:36:17;;;;;;;4.35;2.87;;;27.20;45.70;;;;;;4442550;32;20191;-83
2021/06/04 08:38:44;;;;;;;6.62;3.05;;;27.70;45.40;;;;;;4440924;32;20448;-84
2021/06/04 08:41:30;;;;;;;8.60;3.10;;;27.90;43.30;;;;;;4440394;32;20155;-82
2021/06/04 08:44:15;;;;;;;4.07;2.80;;;28.20;43.50;;;;;;4440827;32;20506;-82
2021/06/04 08:46:47;;;;;;;5.43;2.50;;;28.40;43.60;;;;;;4441450;32;20194;-81
2021/06/04 08:49:39;;;;;;;5.07;3.00;;;28.60;44.30;;;;;;4440192;32;20134;-80
2021/06/04 08:52:44;;;;;;;6.72;2.90;;;28.90;44.30;;;;;;4440173;32;20184;-81
2021/06/04 08:55:44;;;;;;;6.32;2.70;;;29.10;42.40;;;;;;4441090;32;20141;-81
2021/06/04 08:58:24;;;;;;;4.10;2.80;;;29.20;42.30;;;;;;4440976;32;20180;-82
2021/06/04 09:00:56;;;;;;;5.12;2.75;;;29.40;43.00;;;;;;4441686;32;20139;-80
2021/06/04 09:03:37;;;;;;;3.72;2.70;;;29.60;40.70;;;;;;4442114;32;20131;-82
2021/06/04 09:06:11;;;;;;;4.32;2.42;;;30.00;40.50;;;;;;4442074;32;20179;-82
2021/06/04 09:08:40;;;;;;;3.35;2.28;;;30.30;39.10;;;;;;4442030;32;20158;-82
2021/06/04 09:11:42;;;;;;;3.55;2.30;;;29.90;36.10;;;;;;4442097;32;20135;-84
2021/06/04 09:14:09;;;;;;;4.05;2.42;;;29.80;37.20;;;;;;4439890;32;20170;-82
2021/06/04 09:16:57;;;;;;;4.03;2.55;;;29.90;40.00;;;;;;4441552;32;20187;-83
2021/06/04 09:19:31;;;;;;;4.15;2.10;;;29.60;36.60;;;;;;4439735;32;20142;-84
2021/06/04 09:21:59;;;;;;;4.68;2.33;;;29.50;35.90;;;;;;4440339;32;20445;-82
2021/06/04 09:24:51;;;;;;;6.03;2.65;;;29.60;37.20;;;;;;4441770;32;20529;-82
2021/06/04 09:27:35;;;;;;;3.37;2.40;;;30.10;37.90;;;;;;4440766;32;20157;-82
2021/06/04 09:30:21;;;;;;;5.55;2.50;;;29.90;37.00;;;;;;4440021;32;20146;-82
2021/06/04 09:33:06;;;;;;;3.17;2.20;;;30.00;37.40;;;;;;4442066;32;20160;-82
2021/06/04 09:35:36;;;;;;;3.28;2.40;;;30.40;37.30;;;;;;4440940;32;20174;-81
2021/06/04 09:38:16;;;;;;;3.92;2.30;;;30.40;35.20;;;;;;4440885;32;20195;-83
2021/06/04 09:40:44;;;;;;;3.10;2.60;;;30.80;36.20;;;;;;4441858;32;20351;-82
2021/06/04 09:43:22;;;;;;;4.62;2.70;;;30.70;36.60;;;;;;4441195;32;20130;-82
2021/06/04 09:45:57;;;;;;;4.18;2.37;;;31.00;37.80;;;;;;4439998;32;20177;-82
2021/06/04 09:48:35;;;;;;;3.62;2.40;;;31.20;35.70;;;;;;4441600;32;20161;-83
2021/06/04 09:51:22;;;;;;;3.15;2.33;;;31.50;35.10;;;;;;4439331;32;20142;-82
2021/06/04 09:53:51;;;;;;;2.40;2.15;;;31.70;36.20;;;;;;4439868;32;20209;-82
2021/06/04 09:56:33;;;;;;;4.53;2.40;;;31.90;33.50;;;;;;4439390;32;20189;-82
2021/06/04 09:59:04;;;;;;;3.87;2.20;;;31.80;33.80;;;;;;4440866;32;20182;-81
2021/06/04 10:01:50;;;;;;;3.08;2.10;;;32.10;33.30;;;;;;4439822;32;20165;-81
2021/06/04 10:04:32;;;;;;;2.20;2.00;;;32.20;33.10;;;;;;4441183;32;20209;-82
2021/06/04 10:07:21;;;;;;;5.32;2.22;;;32.50;32.80;;;;;;4439549;32;20174;-82
2021/06/04 10:09:49;;;;;;;4.32;2.40;;;32.70;31.80;;;;;;4441367;32;20135;-82
2021/06/04 10:12:31;;;;;;;2.92;2.12;;;32.70;32.40;;;;;;4440091;32;20177;-83
2021/06/04 10:15:11;;;;;;;5.12;2.22;;;32.90;31.10;;;;;;4439685;32;20146;-82
2021/06/04 10:18:03;;;;;;;4.50;2.20;;;32.90;29.80;;;;;;4438650;32;20431;-80
2021/06/04 10:20:43;;;;;;;2.62;2.00;;;32.10;30.00;;;;;;4439580;32;20192;-81
2021/06/04 10:23:10;;;;;;;3.90;2.30;;;32.50;31.00;;;;;;4439272;32;20411;-82
2021/06/04 10:25:54;;;;;;;5.03;2.50;;;33.00;31.60;;;;;;4439050;32;20158;-81
2021/06/04 10:28:39;;;;;;;4.15;2.62;;;32.20;32.50;;;;;;4440813;32;20142;-80
2021/06/04 10:31:18;;;;;;;4.87;2.70;;;31.40;33.20;;;;;;4441234;32;20142;-82
2021/06/04 10:34:12;;;;;;;4.65;2.53;;;31.70;34.30;;;;;;4442991;32;20198;-82
2021/06/04 10:36:42;;;;;;;2.97;2.22;;;32.00;34.70;;;;;;4442922;32;20146;-82
2021/06/04 10:39:12;;;;;;;3.35;2.15;;;32.50;32.30;;;;;;4444184;32;20195;-82
2021/06/04 10:41:55;;;;;;;3.75;2.20;;;32.70;32.10;;;;;;4442473;32;20164;-82
2021/06/04 10:44:44;;;;;;;3.45;2.20;;;32.40;31.80;;;;;;4443690;32;20150;-82
2021/06/04 10:47:36;;;;;;;3.40;2.10;;;32.20;31.70;;;;;;4442919;32;20192;-83
2021/06/04 10:50:20;;;;;;;4.20;2.40;;;31.60;30.70;;;;;;4443397;32;20143;-82
2021/06/04 10:52:58;;;;;;;2.40;2.10;;;30.80;31.20;;;;;;4442536;32;20138;-83
2021/06/04 10:55:39;;;;;;;3.50;2.10;;;30.40;33.50;;;;;;4444640;32;20174;-83
2021/06/04 10:58:24;;;;;;;3.85;2.40;;;30.00;36.10;;;;;;4441568;32;20204;-84
2021/06/04 11:00:59;;;;;;;3.33;2.12;;;29.90;36.60;;;;;;4443020;32;20557;-84
2021/06/04 11:03:48;;;;;;;3.87;2.22;;;29.50;38.50;;;;;;4443179;32;20467;-83
2021/06/04 11:06:24;;;;;;;2.80;2.15;;;29.30;36.00;;;;;;4442127;32;20385;-84
2021/06/04 11:09:18;;;;;;;3.17;2.28;;;29.00;36.40;;;;;;4442395;32;20209;-84
2021/06/04 11:12:01;;;;;;;4.95;2.50;;;28.90;35.10;;;;;;4443741;32;20138;-82
2021/06/04 11:14:47;;;;;;;3.45;2.30;;;28.80;38.30;;;;;;4443851;32;20229;-83
2021/06/04 11:17:27;;;;;;;5.15;2.62;;;28.70;38.70;;;;;;4442305;32;20142;-84
2021/06/04 11:20:06;;;;;;;3.05;2.45;;;28.50;38.00;;;;;;4441984;32;20166;-82
2021/06/04 11:22:51;;;;;;;3.65;2.20;;;28.50;38.90;;;;;;4441989;32;20180;-83
2021/06/04 11:25:39;;;;;;;3.00;2.50;;;29.20;39.20;;;;;;4442774;32;20142;-83
2021/06/04 11:28:36;;;;;;;2.95;2.20;;;30.10;38.20;;;;;;4442849;32;20138;-83
2021/06/04 11:31:06;;;;;;;3.00;2.22;;;31.30;36.40;;;;;;4442423;32;20154;-83
2021/06/04 11:33:36;;;;;;;2.60;2.37;;;32.30;34.00;;;;;;4441915;32;20165;-82
2021/06/04 11:36:09;;;;;;;7.03;2.70;;;33.10;34.00;;;;;;4442972;32;20165;-82
2021/06/04 11:38:41;;;;;;;2.67;2.28;;;33.90;32.60;;;;;;4442016;32;20138;-82
2021/06/04 11:41:40;;;;;;;3.20;2.20;;;34.70;30.10;;;;;;4441512;32;20181;-81
2021/06/04 11:44:34;;;;;;;4.50;2.42;;;35.00;30.50;;;;;;4427738;32;20253;-82
2021/06/04 11:47:13;;;;;;;3.17;2.30;;;33.80;29.10;;;;;;4443031;32;20161;-82
2021/06/04 11:49:52;;;;;;;5.22;2.50;;;33.60;30.70;;;;;;4441699;32;20267;-82
2021/06/04 11:52:35;;;;;;;3.50;2.30;;;33.80;31.00;;;;;;4441472;32;20375;-83
2021/06/04 11:55:30;;;;;;;3.87;2.28;;;34.10;29.60;;;;;;4442849;32;20172;-83
2021/06/04 11:58:02;;;;;;;3.72;2.20;;;34.00;29.60;;;;;;4440877;32;20154;-83
2021/06/04 12:00:39;;;;;;;3.70;2.40;;;33.80;28.80;;;;;;4441314;32;20133;-82
2021/06/04 12:03:09;;;;;;;3.80;2.50;;;34.30;29.50;;;;;;4441481;32;20143;-80
2021/06/04 12:05:54;;;;;;;3.67;2.20;;;34.80;28.90;;;;;;4442787;32;20150;-81
2021/06/04 12:08:21;;;;;;;3.65;2.20;;;35.70;29.40;;;;;;4442752;32;20185;-81
2021/06/04 12:10:54;;;;;;;2.42;2.22;;;36.50;27.80;;;;;;4440956;32;20195;-83
2021/06/04 12:13:59;;;;;;;3.80;2.40;;;36.60;27.70;;;;;;4441712;32;20225;-82
2021/06/04 12:16:29;;;;;;;3.53;2.22;;;37.10;27.60;;;;;;4427439;32;20170;-82
2021/06/04 12:19:22;;;;;;;2.83;2.30;;;37.30;27.90;;;;;;4441701;32;20147;-81
2021/06/04 12:21:51;;;;;;;4.05;2.22;;;37.20;27.40;;;;;;4442664;32;20142;-82
2021/06/04 12:24:21;;;;;;;5.12;2.50;;;36.80;27.60;;;;;;4442726;32;20395;-82
2021/06/04 12:27:02;;;;;;;3.50;2.20;;;36.30;27.20;;;;;;4442398;32;20142;-82
2021/06/04 12:29:31;;;;;;;3.80;2.33;;;35.20;28.20;;;;;;4441279;32;20138;-82
2021/06/04 12:32:16;;;;;;;3.30;2.33;;;34.50;28.80;;;;;;4439967;32;20150;-81
2021/06/04 12:34:49;;;;;;;6.47;2.60;;;33.50;29.90;;;;;;4442416;32;20525;-80
2021/06/04 12:37:23;;;;;;;3.62;2.50;;;32.40;31.30;;;;;;4442468;32;20416;-80
2021/06/04 12:40:09;;;;;;;4.47;2.60;;;31.10;30.90;;;;;;4442051;32;20232;-80
2021/06/04 12:43:02;;;;;;;3.30;2.67;;;29.90;34.40;;;;;;4440147;32;20149;-80
2021/06/04 12:45:39;;;;;;;6.20;2.87;;;29.80;35.70;;;;;;4430788;32;20162;-81
2021/06/04 12:48:12;;;;;;;2.70;2.42;;;30.10;35.60;;;;;;4440835;32;20142;-80
2021/06/04 12:50:45;;;;;;;3.62;2.45;;;30.10;35.00;;;;;;4438981;32;20166;-80
2021/06/04 12:53:34;;;;;;;3.42;2.72;;;30.10;36.10;;;;;;4440391;32;20142;-80
2021/06/04 12:56:01;;;;;;;3.35;2.70;;;30.10;35.80;;;;;;4442095;32;20244;-79
2021/06/04 12:58:30;;;;;;;4.00;2.80;;;30.10;34.70;;;;;;4442099;32;20150;-80
2021/06/04 13:01:20;;;;;;;3.80;2.70;;;29.70;35.20;;;;;;4440538;32;20131;-80
2021/06/04 13:03:54;;;;;;;2.80;2.50;;;29.60;36.60;;;;;;4442290;32;20134;-80
2021/06/04 13:06:40;;;;;;;4.25;2.80;;;29.60;37.60;;;;;;4440522;32;20142;-80
2021/06/04 13:09:26;;;;;;;4.55;2.50;;;29.60;38.70;;;;;;4439937;32;20527;-81
2021/06/04 13:11:54;;;;;;;4.43;2.75;;;29.50;39.70;;;;;;4442344;32;20165;-81
2021/06/04 13:14:40;;;;;;;4.82;2.58;;;29.50;40.30;;;;;;4439870;32;20196;-81